sensor_id;sensor_type;location;lat;lon;timestamp;pressure;altitude;pressure_sealevel;temperature;humidity
69245;BME280;56357;52.304;4.870;2023-10-09T00:02:08;102226.22;;;20.96;64.60
69245;BME280;56357;52.304;4.870;2023-10-09T00:04:39;102234.38;;;20.92;64.83
69245;BME280;56357;52.304;4.870;2023-10-09T00:07:08;102234.09;;;20.94;64.79
69245;BME280;56357;52.304;4.870;2023-10-09T00:09:35;102237.47;;;20.91;64.67
69245;BME280;56357;52.304;4.870;2023-10-09T00:12:18;102235.22;;;20.93;65.02
69245;BME280;56357;52.304;4.870;2023-10-09T00:14:48;102233.78;;;20.90;64.68
69245;BME280;56357;52.304;4.870;2023-10-09T00:17:16;102227.63;;;20.93;64.85
69245;BME280;56357;52.304;4.870;2023-10-09T00:19:49;102228.72;;;20.92;64.83
69245;BME280;56357;52.304;4.870;2023-10-09T00:22:18;102231.34;;;20.99;64.66
69245;BME280;56357;52.304;4.870;2023-10-09T00:24:56;102220.59;;;20.96;64.74
69245;BME280;56357;52.304;4.870;2023-10-09T00:27:43;102220.94;;;21.00;64.76
69245;BME280;56357;52.304;4.870;2023-10-09T00:30:12;102215.50;;;20.93;64.92
69245;BME280;56357;52.304;4.870;2023-10-09T00:32:41;102222.03;;;20.98;64.69
69245;BME280;56357;52.304;4.870;2023-10-09T00:35:24;102209.00;;;20.92;64.97
69245;BME280;56357;52.304;4.870;2023-10-09T00:38:07;102209.66;;;21.00;64.72
69245;BME280;56357;52.304;4.870;2023-10-09T00:40:41;102211.56;;;20.94;64.92
69245;BME280;56357;52.304;4.870;2023-10-09T00:43:15;102207.09;;;20.98;64.84
69245;BME280;56357;52.304;4.870;2023-10-09T00:45:44;102199.22;;;21.00;64.82
69245;BME280;56357;52.304;4.870;2023-10-09T00:48:13;102204.38;;;21.03;64.73
69245;BME280;56357;52.304;4.870;2023-10-09T00:50:47;102188.94;;;21.11;64.41
69245;BME280;56357;52.304;4.870;2023-10-09T00:53:19;102192.78;;;21.00;64.70
69245;BME280;56357;52.304;4.870;2023-10-09T00:55:57;102197.03;;;21.02;64.67
69245;BME280;56357;52.304;4.870;2023-10-09T00:58:28;102193.59;;;21.00;64.63
69245;BME280;56357;52.304;4.870;2023-10-09T01:00:56;102193.94;;;21.04;64.67
69245;BME280;56357;52.304;4.870;2023-10-09T01:03:25;102185.69;;;20.97;64.88
69245;BME280;56357;52.304;4.870;2023-10-09T01:05:57;102196.19;;;21.02;64.67
69245;BME280;56357;52.304;4.870;2023-10-09T01:08:28;102181.16;;;20.96;65.02
69245;BME280;56357;52.304;4.870;2023-10-09T01:10:59;102187.75;;;21.02;64.69
69245;BME280;56357;52.304;4.870;2023-10-09T01:13:37;102184.06;;;21.01;64.73
69245;BME280;56357;52.304;4.870;2023-10-09T01:16:27;102168.78;;;20.97;64.98
69245;BME280;56357;52.304;4.870;2023-10-09T01:18:56;102178.69;;;21.00;65.08
69245;BME280;56357;52.304;4.870;2023-10-09T01:21:23;102151.44;;;21.05;64.69
69245;BME280;56357;52.304;4.870;2023-10-09T01:23:52;102155.56;;;20.98;65.22
69245;BME280;56357;52.304;4.870;2023-10-09T01:26:43;102159.50;;;20.96;65.12
69245;BME280;56357;52.304;4.870;2023-10-09T01:29:14;102161.13;;;20.92;65.10
69245;BME280;56357;52.304;4.870;2023-10-09T01:34:20;102162.03;;;20.98;65.13
69245;BME280;56357;52.304;4.870;2023-10-09T01:36:52;102155.22;;;20.94;65.45
69245;BME280;56357;52.304;4.870;2023-10-09T01:39:22;102157.81;;;20.95;65.22
69245;BME280;56357;52.304;4.870;2023-10-09T01:41:52;102143.97;;;20.94;65.14
69245;BME280;56357;52.304;4.870;2023-10-09T01:44:33;102139.19;;;20.94;65.29
69245;BME280;56357;52.304;4.870;2023-10-09T01:47:04;102134.44;;;21.00;65.31
69245;BME280;56357;52.304;4.870;2023-10-09T01:49:36;102138.66;;;20.98;65.01
69245;BME280;56357;52.304;4.870;2023-10-09T01:52:07;102130.22;;;20.98;65.34
69245;BME280;56357;52.304;4.870;2023-10-09T01:54:37;102132.25;;;21.02;65.31
69245;BME280;56357;52.304;4.870;2023-10-09T01:57:07;102127.13;;;20.99;65.30
69245;BME280;56357;52.304;4.870;2023-10-09T01:59:37;102135.28;;;20.95;65.41
69245;BME280;56357;52.304;4.870;2023-10-09T02:02:09;102132.19;;;20.97;65.44
69245;BME280;56357;52.304;4.870;2023-10-09T02:04:49;102132.19;;;20.97;65.73
69245;BME280;56357;52.304;4.870;2023-10-09T02:07:16;102130.56;;;21.01;65.21
69245;BME280;56357;52.304;4.870;2023-10-09T02:09:47;102127.13;;;20.99;65.35
69245;BME280;56357;52.304;4.870;2023-10-09T02:12:13;102119.53;;;21.00;65.12
69245;BME280;56357;52.304;4.870;2023-10-09T02:14:41;102124.84;;;20.96;65.13
69245;BME280;56357;52.304;4.870;2023-10-09T02:17:09;102132.13;;;20.92;65.60
69245;BME280;56357;52.304;4.870;2023-10-09T02:19:42;102129.94;;;20.99;65.29
69245;BME280;56357;52.304;4.870;2023-10-09T02:22:14;102134.44;;;21.00;65.49
69245;BME280;56357;52.304;4.870;2023-10-09T02:24:42;102131.13;;;21.03;65.05
69245;BME280;56357;52.304;4.870;2023-10-09T02:27:17;102127.78;;;21.06;65.02
69245;BME280;56357;52.304;4.870;2023-10-09T02:30:05;102128.81;;;21.00;65.30
69245;BME280;56357;52.304;4.870;2023-10-09T02:32:41;102117.53;;;21.00;65.50
69245;BME280;56357;52.304;4.870;2023-10-09T02:35:09;102114.53;;;21.07;65.33
69245;BME280;56357;52.304;4.870;2023-10-09T02:37:44;102097.81;;;21.00;65.33
69245;BME280;56357;52.304;4.870;2023-10-09T02:40:12;102101.84;;;21.04;65.27
69245;BME280;56357;52.304;4.870;2023-10-09T02:42:47;102092.53;;;21.04;65.15
69245;BME280;56357;52.304;4.870;2023-10-09T02:45:15;102090.03;;;21.07;65.39
69245;BME280;56357;52.304;4.870;2023-10-09T02:47:42;102079.03;;;21.06;65.38
69245;BME280;56357;52.304;4.870;2023-10-09T02:50:14;102087.22;;;21.07;65.24
69245;BME280;56357;52.304;4.870;2023-10-09T02:52:47;102086.09;;;21.08;65.06
69245;BME280;56357;52.304;4.870;2023-10-09T02:55:19;102093.97;;;21.06;65.08
69245;BME280;56357;52.304;4.870;2023-10-09T02:57:51;102086.66;;;21.05;65.29
69245;BME280;56357;52.304;4.870;2023-10-09T03:00:29;102076.25;;;21.11;65.03
69245;BME280;56357;52.304;4.870;2023-10-09T03:02:57;102075.41;;;21.10;64.94
69245;BME280;56357;52.304;4.870;2023-10-09T03:05:24;102082.91;;;21.00;65.12
69245;BME280;56357;52.304;4.870;2023-10-09T03:07:53;102081.03;;;21.05;65.21
69245;BME280;56357;52.304;4.870;2023-10-09T03:10:22;102073.66;;;21.04;65.35
69245;BME280;56357;52.304;4.870;2023-10-09T03:12:49;102068.31;;;21.03;65.00
69245;BME280;56357;52.304;4.870;2023-10-09T03:15:19;102068.31;;;21.03;65.20
69245;BME280;56357;52.304;4.870;2023-10-09T03:17:46;102088.31;;;21.01;65.29
69245;BME280;56357;52.304;4.870;2023-10-09T03:20:14;102094.53;;;21.08;65.17
69245;BME280;56357;52.304;4.870;2023-10-09T03:22:43;102106.88;;;21.02;65.46
69245;BME280;56357;52.304;4.870;2023-10-09T03:25:11;102108.94;;;21.12;64.97
69245;BME280;56357;52.304;4.870;2023-10-09T03:27:42;102119.09;;;21.13;64.81
69245;BME280;56357;52.304;4.870;2023-10-09T03:30:14;102135.72;;;21.14;64.88
69245;BME280;56357;52.304;4.870;2023-10-09T03:32:47;102131.91;;;21.30;64.59
69245;BME280;56357;52.304;4.870;2023-10-09T03:35:17;102123.09;;;21.22;64.75
69245;BME280;56357;52.304;4.870;2023-10-09T03:37:50;102119.44;;;21.21;64.79
69245;BME280;56357;52.304;4.870;2023-10-09T03:40:17;102113.50;;;21.18;64.83
69245;BME280;56357;52.304;4.870;2023-10-09T03:42:44;102126.81;;;21.27;64.52
69245;BME280;56357;52.304;4.870;2023-10-09T03:45:11;102109.88;;;21.27;64.41
69245;BME280;56357;52.304;4.870;2023-10-09T03:47:49;102105.38;;;21.26;64.56
69245;BME280;56357;52.304;4.870;2023-10-09T03:50:21;102111.28;;;21.25;64.82
69245;BME280;56357;52.304;4.870;2023-10-09T03:52:52;102116.59;;;21.21;64.97
69245;BME280;56357;52.304;4.870;2023-10-09T03:55:20;102109.88;;;21.22;64.92
69245;BME280;56357;52.304;4.870;2023-10-09T03:57:47;102108.81;;;21.33;64.26
69245;BME280;56357;52.304;4.870;2023-10-09T04:00:14;102105.38;;;21.26;64.66
69245;BME280;56357;52.304;4.870;2023-10-09T04:02:48;102102.28;;;21.23;64.56
69245;BME280;56357;52.304;4.870;2023-10-09T04:05:14;102096.88;;;21.16;65.13
69245;BME280;56357;52.304;4.870;2023-10-09T04:07:41;102092.09;;;21.22;64.72
69245;BME280;56357;52.304;4.870;2023-10-09T04:10:07;102096.31;;;21.19;64.81
69245;BME280;56357;52.304;4.870;2023-10-09T04:12:59;102084.78;;;21.21;64.72
69245;BME280;56357;52.304;4.870;2023-10-09T04:15:26;102091.53;;;21.20;64.94
69245;BME280;56357;52.304;4.870;2023-10-09T04:17:56;102081.63;;;21.17;64.78
69245;BME280;56357;52.304;4.870;2023-10-09T04:20:22;102081.97;;;21.21;64.85
69245;BME280;56357;52.304;4.870;2023-10-09T04:23:05;102075.75;;;21.19;64.74
69245;BME280;56357;52.304;4.870;2023-10-09T04:25:32;102069.00;;;21.20;64.98
69245;BME280;56357;52.304;4.870;2023-10-09T04:28:09;102075.78;;;21.24;64.54
69245;BME280;56357;52.304;4.870;2023-10-09T04:30:44;102097.47;;;21.23;65.22
69245;BME280;56357;52.304;4.870;2023-10-09T04:33:18;102079.41;;;21.19;64.96
69245;BME280;56357;52.304;4.870;2023-10-09T04:36:04;102086.84;;;21.35;64.26
69245;BME280;56357;52.304;4.870;2023-10-09T04:38:47;102094.13;;;21.26;64.85
69245;BME280;56357;52.304;4.870;2023-10-09T04:41:22;102086.81;;;21.30;64.31
69245;BME280;56357;52.304;4.870;2023-10-09T04:43:57;102098.09;;;21.30;64.60
69245;BME280;56357;52.304;4.870;2023-10-09T04:46:41;102111.31;;;21.30;64.72
69245;BME280;56357;52.304;4.870;2023-10-09T04:49:10;102110.53;;;21.34;64.29
69245;BME280;56357;52.304;4.870;2023-10-09T04:51:52;102122.34;;;21.36;64.04
69245;BME280;56357;52.304;4.870;2023-10-09T04:54:29;102110.78;;;21.33;64.35
69245;BME280;56357;52.304;4.870;2023-10-09T04:57:04;102116.69;;;21.36;64.31
69245;BME280;56357;52.304;4.870;2023-10-09T04:59:43;102133.94;;;21.40;64.10
69245;BME280;56357;52.304;4.870;2023-10-09T05:02:12;102123.69;;;21.29;64.73
69245;BME280;56357;52.304;4.870;2023-10-09T05:04:44;102128.84;;;21.37;64.59
69245;BME280;56357;52.304;4.870;2023-10-09T05:07:13;102133.66;;;21.41;64.19
69245;BME280;56357;52.304;4.870;2023-10-09T05:10:11;102122.63;;;21.35;64.47
69245;BME280;56357;52.304;4.870;2023-10-09T05:12:43;102127.69;;;21.33;64.76
69245;BME280;56357;52.304;4.870;2023-10-09T05:15:15;102138.44;;;21.41;64.29
69245;BME280;56357;52.304;4.870;2023-10-09T05:17:41;102138.66;;;21.29;64.62
69245;BME280;56357;52.304;4.870;2023-10-09T05:20:17;102149.41;;;21.32;63.97
69245;BME280;56357;52.304;4.870;2023-10-09T05:23:01;102145.78;;;21.42;64.01
69245;BME280;56357;52.304;4.870;2023-10-09T05:25:48;102138.75;;;21.44;64.80
69245;BME280;56357;52.304;4.870;2023-10-09T05:28:19;102142.66;;;21.38;64.85
69245;BME280;56357;52.304;4.870;2023-10-09T05:30:56;102130.59;;;21.48;64.76
69245;BME280;56357;52.304;4.870;2023-10-09T05:33:32;102132.53;;;21.42;64.96
69245;BME280;56357;52.304;4.870;2023-10-09T05:36:02;102130.00;;;21.41;65.10
69245;BME280;56357;52.304;4.870;2023-10-09T05:38:40;102114.22;;;21.45;64.61
69245;BME280;56357;52.304;4.870;2023-10-09T05:41:12;102125.78;;;21.43;64.96
69245;BME280;56357;52.304;4.870;2023-10-09T05:43:52;102111.72;;;21.48;64.87
69245;BME280;56357;52.304;4.870;2023-10-09T05:46:36;102099.91;;;21.51;65.03
69245;BME280;56357;52.304;4.870;2023-10-09T05:49:13;102114.03;;;21.61;64.62
69245;BME280;56357;52.304;4.870;2023-10-09T05:51:44;102110.63;;;21.59;64.25
69245;BME280;56357;52.304;4.870;2023-10-09T05:54:18;102108.03;;;21.43;64.83
69245;BME280;56357;52.304;4.870;2023-10-09T05:57:04;102106.06;;;21.48;64.85
69245;BME280;56357;52.304;4.870;2023-10-09T05:59:50;102094.22;;;21.41;65.47
69245;BME280;56357;52.304;4.870;2023-10-09T06:02:34;102092.78;;;21.39;65.42
69245;BME280;56357;52.304;4.870;2023-10-09T06:05:18;102092.78;;;21.39;65.21
69245;BME280;56357;52.304;4.870;2023-10-09T06:07:58;102100.34;;;21.28;65.63
69245;BME280;56357;52.304;4.870;2023-10-09T06:10:31;102089.69;;;21.40;65.28
69245;BME280;56357;52.304;4.870;2023-10-09T06:13:07;102095.28;;;21.30;65.29
69245;BME280;56357;52.304;4.870;2023-10-09T06:15:54;102105.41;;;21.31;65.52
69245;BME280;56357;52.304;4.870;2023-10-09T06:18:37;102112.75;;;21.32;65.48
69245;BME280;56357;52.304;4.870;2023-10-09T06:21:06;102131.34;;;21.33;65.46
69245;BME280;56357;52.304;4.870;2023-10-09T06:23:35;102139.53;;;21.35;65.39
69245;BME280;56357;52.304;4.870;2023-10-09T06:26:34;102139.50;;;21.30;65.41
69245;BME280;56357;52.304;4.870;2023-10-09T06:29:00;102134.16;;;21.33;65.48
69245;BME280;56357;52.304;4.870;2023-10-09T06:31:55;102147.19;;;21.39;65.32
69245;BME280;56357;52.304;4.870;2023-10-09T06:34:27;102153.91;;;21.38;65.06
69245;BME280;56357;52.304;4.870;2023-10-09T06:37:01;102148.81;;;21.30;65.27
69245;BME280;56357;52.304;4.870;2023-10-09T06:39:34;102147.41;;;21.33;65.38
69245;BME280;56357;52.304;4.870;2023-10-09T06:42:18;102150.28;;;21.38;65.26
69245;BME280;56357;52.304;4.870;2023-10-09T06:45:09;102146.00;;;21.30;65.29
69245;BME280;56357;52.304;4.870;2023-10-09T06:47:46;102140.97;;;21.37;65.16
69245;BME280;56357;52.304;4.870;2023-10-09T06:50:20;102134.75;;;21.35;65.14
69245;BME280;56357;52.304;4.870;2023-10-09T06:53:13;102136.44;;;21.36;65.38
69245;BME280;56357;52.304;4.870;2023-10-09T06:55:45;102136.50;;;21.46;64.70
69245;BME280;56357;52.304;4.870;2023-10-09T06:58:16;102149.44;;;21.42;64.81
69245;BME280;56357;52.304;4.870;2023-10-09T07:00:51;102127.72;;;21.38;64.73
69245;BME280;56357;52.304;4.870;2023-10-09T07:03:40;102119.22;;;21.33;65.14
69245;BME280;56357;52.304;4.870;2023-10-09T07:06:18;102122.91;;;21.38;64.90
69245;BME280;56357;52.304;4.870;2023-10-09T07:08:53;102099.84;;;21.41;64.63
69245;BME280;56357;52.304;4.870;2023-10-09T07:11:42;102079.53;;;21.34;64.98
69245;BME280;56357;52.304;4.870;2023-10-09T07:14:24;102064.31;;;21.40;64.77
69245;BME280;56357;52.304;4.870;2023-10-09T07:17:09;102051.34;;;21.34;65.23
69245;BME280;56357;52.304;4.870;2023-10-09T07:19:47;102074.44;;;21.36;65.07
69245;BME280;56357;52.304;4.870;2023-10-09T07:22:33;102071.44;;;21.58;63.97
69245;BME280;56357;52.304;4.870;2023-10-09T07:25:05;102089.75;;;21.50;64.51
69245;BME280;56357;52.304;4.870;2023-10-09T07:27:40;102113.38;;;21.44;65.08
69245;BME280;56357;52.304;4.870;2023-10-09T07:30:12;102116.19;;;21.39;65.24
69245;BME280;56357;52.304;4.870;2023-10-09T07:33:06;102121.03;;;21.54;65.26
69245;BME280;56357;52.304;4.870;2023-10-09T07:35:46;102126.44;;;21.55;65.55
69245;BME280;56357;52.304;4.870;2023-10-09T07:38:25;102123.03;;;21.53;65.57
69245;BME280;56357;52.304;4.870;2023-10-09T07:40:55;102120.78;;;21.55;64.93
69245;BME280;56357;52.304;4.870;2023-10-09T07:43:29;102122.47;;;21.51;65.03
69245;BME280;56357;52.304;4.870;2023-10-09T07:46:03;102113.78;;;21.63;64.58
69245;BME280;56357;52.304;4.870;2023-10-09T07:48:47;102121.97;;;21.64;65.24
69245;BME280;56357;52.304;4.870;2023-10-09T07:51:22;102134.97;;;21.75;65.55
69245;BME280;56357;52.304;4.870;2023-10-09T07:53:56;102143.59;;;22.01;64.69
69245;BME280;56357;52.304;4.870;2023-10-09T07:56:38;102149.22;;;21.96;64.70
69245;BME280;56357;52.304;4.870;2023-10-09T07:59:07;102163.75;;;21.77;65.18
69245;BME280;56357;52.304;4.870;2023-10-09T08:02:02;102166.50;;;21.67;65.80
69245;BME280;56357;52.304;4.870;2023-10-09T08:04:29;102167.03;;;21.59;65.90
69245;BME280;56357;52.304;4.870;2023-10-09T08:07:08;102160.56;;;21.64;65.75
69245;BME280;56357;52.304;4.870;2023-10-09T08:09:44;102165.66;;;21.67;66.09
69245;BME280;56357;52.304;4.870;2023-10-09T08:12:16;102177.31;;;21.80;65.05
69245;BME280;56357;52.304;4.870;2023-10-09T08:15:03;102194.19;;;21.70;65.48
69245;BME280;56357;52.304;4.870;2023-10-09T08:17:54;102202.38;;;21.72;65.58
69245;BME280;56357;52.304;4.870;2023-10-09T08:20:25;102215.72;;;21.81;65.47
69245;BME280;56357;52.304;4.870;2023-10-09T08:22:54;102199.56;;;21.77;65.64
69245;BME280;56357;52.304;4.870;2023-10-09T08:25:22;102207.25;;;21.81;65.62
69245;BME280;56357;52.304;4.870;2023-10-09T08:28:02;102200.81;;;21.91;64.77
69245;BME280;56357;52.304;4.870;2023-10-09T08:30:46;102217.88;;;22.16;64.25
69245;BME280;56357;52.304;4.870;2023-10-09T08:33:27;102212.19;;;22.11;64.28
69245;BME280;56357;52.304;4.870;2023-10-09T08:36:07;102225.41;;;22.01;64.51
69245;BME280;56357;52.304;4.870;2023-10-09T08:38:34;102218.94;;;22.05;64.15
69245;BME280;56357;52.304;4.870;2023-10-09T08:41:10;102216.38;;;22.04;64.13
69245;BME280;56357;52.304;4.870;2023-10-09T08:43:51;102225.41;;;22.06;64.35
69245;BME280;56357;52.304;4.870;2023-10-09T08:46:26;102227.72;;;22.14;63.77
69245;BME280;56357;52.304;4.870;2023-10-09T08:48:57;102236.69;;;21.96;64.77
69245;BME280;56357;52.304;4.870;2023-10-09T08:51:26;102231.47;;;22.24;65.22
69245;BME280;56357;52.304;4.870;2023-10-09T08:53:53;102239.38;;;22.27;64.66
69245;BME280;56357;52.304;4.870;2023-10-09T08:56:20;102231.88;;;22.58;63.25
69245;BME280;56357;52.304;4.870;2023-10-09T08:58:52;102233.03;;;22.62;62.68
69245;BME280;56357;52.304;4.870;2023-10-09T09:01:20;102238.44;;;22.68;63.07
69245;BME280;56357;52.304;4.870;2023-10-09T09:03:47;102252.31;;;22.85;62.10
69245;BME280;56357;52.304;4.870;2023-10-09T09:06:16;102242.97;;;22.80;62.58
69245;BME280;56357;52.304;4.870;2023-10-09T09:08:44;102240.13;;;22.85;62.05
69245;BME280;56357;52.304;4.870;2023-10-09T09:14:01;102241.31;;;22.94;61.87
69245;BME280;56357;52.304;4.870;2023-10-09T09:16:30;102241.03;;;22.95;62.16
69245;BME280;56357;52.304;4.870;2023-10-09T09:18:58;102231.69;;;22.95;62.00
69245;BME280;56357;52.304;4.870;2023-10-09T09:21:31;102237.63;;;22.93;62.01
69245;BME280;56357;52.304;4.870;2023-10-09T09:24:04;102237.34;;;22.95;61.55
69245;BME280;56357;52.304;4.870;2023-10-09T09:26:42;102232.81;;;22.89;61.97
69245;BME280;56357;52.304;4.870;2023-10-09T09:29:15;102238.75;;;23.02;61.79
69245;BME280;56357;52.304;4.870;2023-10-09T09:31:56;102225.78;;;23.06;61.36
69245;BME280;56357;52.304;4.870;2023-10-09T09:34:43;102231.97;;;22.98;61.64
69245;BME280;56357;52.304;4.870;2023-10-09T09:37:18;102224.91;;;23.06;62.09
69245;BME280;56357;52.304;4.870;2023-10-09T09:39:46;102231.16;;;23.13;61.36
69245;BME280;56357;52.304;4.870;2023-10-09T09:42:13;102224.34;;;23.14;61.26
69245;BME280;56357;52.304;4.870;2023-10-09T09:44:40;102224.63;;;22.87;62.22
69245;BME280;56357;52.304;4.870;2023-10-09T09:47:12;102229.72;;;23.00;62.02
69245;BME280;56357;52.304;4.870;2023-10-09T09:49:50;102231.38;;;22.81;63.88
69245;BME280;56357;52.304;4.870;2023-10-09T09:52:25;102227.19;;;22.99;62.98
69245;BME280;56357;52.304;4.870;2023-10-09T09:54:51;102227.41;;;22.72;63.98
69245;BME280;56357;52.304;4.870;2023-10-09T09:57:20;102227.44;;;22.87;63.20
69245;BME280;56357;52.304;4.870;2023-10-09T09:59:51;102231.69;;;23.00;62.54
69245;BME280;56357;52.304;4.870;2023-10-09T10:02:29;102230.03;;;23.09;62.28
69245;BME280;56357;52.304;4.870;2023-10-09T10:05:00;102235.59;;;22.73;63.56
69245;BME280;56357;52.304;4.870;2023-10-09T10:07:31;102246.91;;;22.79;63.60
69245;BME280;56357;52.304;4.870;2023-10-09T10:10:34;102262.16;;;22.83;62.91
69245;BME280;56357;52.304;4.870;2023-10-09T10:13:02;102270.38;;;22.84;63.52
69245;BME280;56357;52.304;4.870;2023-10-09T10:16:00;102272.13;;;23.15;62.20
69245;BME280;56357;52.304;4.870;2023-10-09T10:18:53;102267.91;;;23.28;61.77
69245;BME280;56357;52.304;4.870;2023-10-09T10:21:24;102265.91;;;23.23;61.86
69245;BME280;56357;52.304;4.870;2023-10-09T10:24:04;102271.56;;;23.08;62.12
69245;BME280;56357;52.304;4.870;2023-10-09T10:26:32;102257.13;;;23.00;62.44
69245;BME280;56357;52.304;4.870;2023-10-09T10:29:17;102262.25;;;23.13;62.09
69245;BME280;56357;52.304;4.870;2023-10-09T10:31:59;102252.88;;;23.02;61.93
69245;BME280;56357;52.304;4.870;2023-10-09T10:37:15;102263.34;;;22.97;62.33
69245;BME280;56357;52.304;4.870;2023-10-09T10:39:51;102264.78;;;22.99;62.09
69245;BME280;56357;52.304;4.870;2023-10-09T10:42:24;102255.44;;;23.04;62.43
69245;BME280;56357;52.304;4.870;2023-10-09T10:45:01;102265.59;;;22.90;62.90
69245;BME280;56357;52.304;4.870;2023-10-09T10:47:29;102265.88;;;22.93;62.38
69245;BME280;56357;52.304;4.870;2023-10-09T10:50:02;102271.53;;;22.93;62.25
69245;BME280;56357;52.304;4.870;2023-10-09T10:53:11;102260.25;;;23.03;62.58
69245;BME280;56357;52.304;4.870;2023-10-09T10:56:00;102256.53;;;22.93;62.55
69245;BME280;56357;52.304;4.870;2023-10-09T10:58:53;102266.16;;;23.02;62.30
69245;BME280;56357;52.304;4.870;2023-10-09T11:01:37;102261.09;;;22.99;62.19
69245;BME280;56357;52.304;4.870;2023-10-09T11:04:20;102269.84;;;23.02;62.32
69245;BME280;56357;52.304;4.870;2023-10-09T11:07:04;102268.47;;;23.15;61.66
69245;BME280;56357;52.304;4.870;2023-10-09T11:09:47;102273.56;;;23.13;61.84
69245;BME280;56357;52.304;4.870;2023-10-09T11:15:08;102264.47;;;23.01;62.04
69245;BME280;56357;52.304;4.870;2023-10-09T11:17:59;102261.94;;;23.04;62.28
69245;BME280;56357;52.304;4.870;2023-10-09T11:20:31;102272.13;;;23.05;62.32
69245;BME280;56357;52.304;4.870;2023-10-09T11:22:59;102263.06;;;23.08;61.95
69245;BME280;56357;52.304;4.870;2023-10-09T11:25:42;102261.09;;;23.04;62.26
69245;BME280;56357;52.304;4.870;2023-10-09T11:28:20;102272.97;;;23.11;61.34
69245;BME280;56357;52.304;4.870;2023-10-09T11:31:16;102277.22;;;23.08;62.19
69245;BME280;56357;52.304;4.870;2023-10-09T11:33:51;102271.56;;;23.18;61.53
69245;BME280;56357;52.304;4.870;2023-10-09T11:36:22;102265.34;;;23.01;61.94
69245;BME280;56357;52.304;4.870;2023-10-09T11:38:59;102270.41;;;23.04;61.71
69245;BME280;56357;52.304;4.870;2023-10-09T11:41:43;102259.13;;;23.14;62.23
69245;BME280;56357;52.304;4.870;2023-10-09T11:44:10;102261.38;;;23.17;62.14
69245;BME280;56357;52.304;4.870;2023-10-09T11:47:03;102246.69;;;23.05;62.19
69245;BME280;56357;52.304;4.870;2023-10-09T11:49:52;102244.97;;;23.04;62.38
69245;BME280;56357;52.304;4.870;2023-10-09T11:52:54;102243.00;;;23.00;61.71
69245;BME280;56357;52.304;4.870;2023-10-09T11:55:34;102242.13;;;22.89;62.11
69245;BME280;56357;52.304;4.870;2023-10-09T11:57:59;102248.94;;;22.98;62.37
69245;BME280;56357;52.304;4.870;2023-10-09T12:00:27;102243.84;;;22.95;62.25
69245;BME280;56357;52.304;4.870;2023-10-09T12:02:55;102248.94;;;23.08;62.10
69245;BME280;56357;52.304;4.870;2023-10-09T12:05:22;102252.03;;;22.92;62.56
69245;BME280;56357;52.304;4.870;2023-10-09T12:07:52;102257.72;;;23.07;62.26
69245;BME280;56357;52.304;4.870;2023-10-09T12:10:22;102254.03;;;23.06;62.31
69245;BME280;56357;52.304;4.870;2023-10-09T12:12:52;102250.91;;;23.08;62.00
69245;BME280;56357;52.304;4.870;2023-10-09T12:15:19;102257.44;;;23.08;62.03
69245;BME280;56357;52.304;4.870;2023-10-09T12:17:46;102255.16;;;22.95;62.65
69245;BME280;56357;52.304;4.870;2023-10-09T12:20:14;102253.47;;;23.04;62.05
69245;BME280;56357;52.304;4.870;2023-10-09T12:22:56;102258.53;;;23.02;61.86
69245;BME280;56357;52.304;4.870;2023-10-09T12:25:24;102255.13;;;22.85;62.52
69245;BME280;56357;52.304;4.870;2023-10-09T12:27:51;102260.19;;;22.88;62.04
69245;BME280;56357;52.304;4.870;2023-10-09T12:30:20;102253.41;;;22.79;62.07
69245;BME280;56357;52.304;4.870;2023-10-09T12:32:52;102258.19;;;22.79;62.67
69245;BME280;56357;52.304;4.870;2023-10-09T12:35:20;102258.81;;;22.91;62.18
69245;BME280;56357;52.304;4.870;2023-10-09T12:37:46;102257.38;;;22.78;62.56
69245;BME280;56357;52.304;4.870;2023-10-09T12:40:15;102259.94;;;22.90;62.03
69245;BME280;56357;52.304;4.870;2023-10-09T12:42:49;102264.75;;;22.84;62.38
69245;BME280;56357;52.304;4.870;2023-10-09T12:45:15;102256.81;;;22.76;62.54
69245;BME280;56357;52.304;4.870;2023-10-09T12:47:43;102265.25;;;22.71;62.81
69245;BME280;56357;52.304;4.870;2023-10-09T12:50:11;102261.91;;;22.84;62.06
69245;BME280;56357;52.304;4.870;2023-10-09T12:52:39;102265.31;;;22.96;61.91
69245;BME280;56357;52.304;4.870;2023-10-09T12:55:06;102265.03;;;22.93;61.64
69245;BME280;56357;52.304;4.870;2023-10-09T12:57:34;102265.56;;;22.80;62.49
69245;BME280;56357;52.304;4.870;2023-10-09T13:00:02;102263.03;;;22.78;62.43
69245;BME280;56357;52.304;4.870;2023-10-09T13:02:36;102254.25;;;22.85;62.03
69245;BME280;56357;52.304;4.870;2023-10-09T13:05:08;102254.56;;;22.83;62.43
69245;BME280;56357;52.304;4.870;2023-10-09T13:07:43;102260.81;;;22.95;62.04
69245;BME280;56357;52.304;4.870;2023-10-09T13:10:10;102264.75;;;22.89;61.80
69245;BME280;56357;52.304;4.870;2023-10-09T13:12:38;102266.41;;;22.85;62.38
69245;BME280;56357;52.304;4.870;2023-10-09T13:15:08;102268.69;;;22.83;62.25
69245;BME280;56357;52.304;4.870;2023-10-09T13:17:36;102268.09;;;22.81;62.64
69245;BME280;56357;52.304;4.870;2023-10-09T13:20:04;102263.59;;;22.90;62.48
69245;BME280;56357;52.304;4.870;2023-10-09T13:22:41;102271.22;;;22.80;62.70
69245;BME280;56357;52.304;4.870;2023-10-09T13:25:09;102260.78;;;22.80;62.41
69245;BME280;56357;52.304;4.870;2023-10-09T13:27:42;102263.31;;;22.87;62.63
69245;BME280;56357;52.304;4.870;2023-10-09T13:30:18;102265.03;;;22.93;62.60
69245;BME280;56357;52.304;4.870;2023-10-09T13:32:49;102263.59;;;22.85;62.55
69245;BME280;56357;52.304;4.870;2023-10-09T13:35:17;102253.44;;;22.84;62.81
69245;BME280;56357;52.304;4.870;2023-10-09T13:37:45;102258.81;;;22.96;62.57
69245;BME280;56357;52.304;4.870;2023-10-09T13:40:20;102260.81;;;22.95;62.61